Terminal Aerodrome Forecast
Issued by NWS Newport/Morehead City, NC

Home | Current Version | Previous Version | Graphics & Text | Print | Product List | Glossary On
Versions: 1 2 3 4 5 6 7 8 9 10 11 12 13 14 15 16 17 18 19
684
FTUS42 KMHX 220619 AAA
TAFEWN
TAF AMD
KEWN 220619Z 2206/2306 35010KT P6SM VCSH SCT008 OVC015
      TEMPO 2206/2208 OVC008
     FM221200 36010KT P6SM SCT030=

USA.gov is the U.S. government's official web portal to all federal, state and local government web resources and services.